Guillermo Sagal

Chefscout - Union Espanola
17 Jul 2027
Samstag
Verarbeitung

Persönlichkeit

Anpassungsfähigkeit (17) Ehrgeiz (10) Kontroverse (11) Loyalität (10) Druck (7) Professionalität (17) Fairness (14) Temperament (13)

Profil

Trainerstil Demokratisch
Lizenz Nationale B
Entschlossenheit 6
Menschenführung 8
Motivation 10
Disziplin 10
Arbeitszufriedenheit
71%
Ermüdung
0%
Rolle Chefscout
Gehalt 30.5K p/W
Vertrag 14.03.2029

Leistung

Verhalten Gut
Trainingseffektivität
22%
Spielerentwicklung
35%
Verletzungsprävention
55%
Taktische Umsetzung
25%

Letzte Ereignisse

Nahm an einer Scouting-Besprechung teil 7T her
Empfahl ein Transferziel 7T her
Nahm an einer Scouting-Besprechung teil 14T her
Empfahl ein Transferziel 14T her
Nahm an einer Scouting-Besprechung teil 21T her
Empfahl ein Transferziel 21T her
Empfahl ein Transferziel 21T her
Empfahl ein Transferziel 28T her

Aktuell beobachtet

218
Spieler Verein Status Fähigkeit Vertrauen Beobachtet Zuletzt beobachtet Letzte Stimme
Joe Gelhardt Hull City Aktiv 124 / 142 40% 3 04.06.2027 -
Dale Taylor Blackpool Aktiv 120 / 118 40% 3 04.06.2027 -
Caio Vidal FC Copenhagen Verhandlung 128 / 129 63% 1 01.06.2027 Befürworten
Agustín Arce Universidad de Chile Verloren 98 / 101 62% 1 01.06.2027 Befürworten
Malik Mothersille Stockport County Aktiv 117 / 124 40% 4 31.05.2027 -
Cameron Archer Southampton Aktiv 126 / 131 40% 2 31.05.2027 -
Karlan Grant West Bromwich Albion Aktiv 119 / 117 40% 3 29.05.2027 -
Welington Southampton Aktiv 122 / 134 40% 1 29.05.2027 -
Aaron Collins Milton Keynes Dons Aktiv 123 / 116 40% 3 28.05.2027 -
Fabrizio Cavegn Bristol Rovers Aktiv 118 / 114 40% 1 28.05.2027 -
Tommy Conway Middlesbrough Aktiv 119 / 133 40% 1 27.05.2027 -
Zian Flemming Ipswich Town Aktiv 136 / 138 40% 2 26.05.2027 Mehr Infos nötig
Isaiah Jones Luton Town Aktiv 137 / 121 40% 1 26.05.2027 -
Callum O'Hare Sheffield United Aktiv 140 / 128 40% 1 26.05.2027 Mehr Infos nötig
Tim Iroegbunam Hull City Aktiv 127 / 130 40% 1 25.05.2027 -
Taiwo Awoniyi Coventry City Aktiv 134 / 131 40% 2 23.05.2027 -
Jay Stansfield Birmingham Aktiv 136 / 127 40% 2 23.05.2027 -
Dom Ballard Leyton Orient Aktiv 110 / 128 40% 5 21.05.2027 -
Julio Alonso Huesca Aktiv 114 / 120 40% 4 20.05.2027 -
Radinio Balker Huddersfield Town Aktiv 128 / 108 40% 1 20.05.2027 -
Aidomo Emakhu Oxford United Aktiv 115 / 116 40% 3 18.05.2027 -
Ilyas Ansah Hull City Aktiv 127 / 125 40% 4 17.05.2027 -
Aune Heggebø West Bromwich Albion Aktiv 138 / 118 40% 3 17.05.2027 Beobachten
Jack Rudoni Coventry City Aktiv 127 / 126 40% 1 17.05.2027 -
Ramón Terrats Getafe Aktiv 142 / 140 40% 1 17.05.2027 -
Kelly Saravanan Salford City Aktiv 101 / 109 40% 2 16.05.2027 -
Adam Idah Swansea City Aktiv 123 / 120 40% 1 16.05.2027 -
Kyle Wootton Stockport County Aktiv 129 / 122 40% 3 14.05.2027 -
Josh Coburn Millwall Aktiv 115 / 113 40% 1 14.05.2027 -
Richard Koné Queens Park Rangers Aktiv 118 / 116 40% 1 13.05.2027 -
Tyrese Campbell Sheffield United Aktiv 133 / 126 40% 4 11.05.2027 -
Christian Saydee Wigan Athletic Aktiv 113 / 116 40% 1 11.05.2027 -
Lamine Cissé Peterborough United Aktiv 130 / 114 40% 6 10.05.2027 -
Konan N'Dri Lecce Aktiv 136 / 131 40% 2 09.05.2027 -
Mihailo Ivanović Millwall Aktiv 127 / 116 40% 1 08.05.2027 -
Jovon Makama Norwich City Aktiv 134 / 116 40% 1 08.05.2027 -
George Hirst Stoke City Aktiv 144 / 135 40% 2 07.05.2027 -
Isma Ruiz Córdoba Aktiv 142 / 140 40% 3 06.05.2027 -
Thalys Almería Aktiv 125 / 118 40% 2 05.05.2027 -
Job Ochieng Real Sociedad Aktiv 95 / 115 40% 1 04.05.2027 -
Yousef Salech Cardiff City Aktiv 128 / 128 40% 6 02.05.2027 -
Leandro Suhr Piast Aktiv 128 / 123 40% 2 01.05.2027 -
Fashion Sakala MC Alger Aktiv 129 / 129 40% 3 01.05.2027 -
Bosun Lawal Stoke City Aktiv 121 / 125 40% 1 01.05.2027 -
Cameron Pring Bristol City Aktiv 138 / 128 40% 1 01.05.2027 -
Milan van Ewijk Coventry City Aktiv 139 / 140 40% 2 30.04.2027 -
Jacques Ekomié Wrexham Aktiv 128 / 124 40% 1 30.04.2027 -
Stephen Odey Ittihad Aktiv 98 / 121 40% 2 28.04.2027 -
Elijah Adebayo Luton Town Aktiv 129 / 113 40% 3 27.04.2027 -
Patrick Agyemang Derby County Aktiv 130 / 127 40% 3 26.04.2027 -
Giorgi Kvernadze Frosinone Aktiv 126 / 115 40% 2 24.04.2027 -
Bobby Thomas Coventry City Aktiv 146 / 128 40% 1 23.04.2027 Mehr Infos nötig
Álex Valle Como Aktiv 135 / 128 40% 1 23.04.2027 -
Saša Lukić Ipswich Town Aktiv 140 / 151 40% 1 22.04.2027 -
Callum Doyle Wrexham Aktiv 117 / 133 40% 1 22.04.2027 -
Habib Diarra Sunderland Aktiv 153 / 152 40% 1 21.04.2027 -
Tomáš Rigo Stoke City Aktiv 121 / 141 40% 1 21.04.2027 -
Iwan Morgan Grimsby Town Aktiv 108 / 107 40% 2 13.04.2027 -
Andile Manyama Ajax Cape Town Aktiv 115 / 106 40% 2 12.04.2027 -
Ross McCrorie Bristol City Aktiv 140 / 135 40% 2 12.04.2027 -
Baba Schlupp Wa All Stars Aktiv 113 / 88 40% 1 12.04.2027 -
Jacob Greaves Ipswich Town Aktiv 123 / 135 40% 2 08.04.2027 -
Abu Kamara Portsmouth Aktiv 121 / 121 40% 1 08.04.2027 -
Kenny Tete Fulham Aktiv 153 / 143 40% 2 05.04.2027 -
Luke McNally Bristol City Aktiv 131 / 125 40% 2 05.04.2027 -
Friday Ubong Hearts of Oak Aktiv 120 / 105 40% 3 04.04.2027 -
Davis Keillor-Dunn Wrexham Aktiv 104 / 114 40% 1 04.04.2027 -
Rumarn Burrell Queens Park Rangers Aktiv 136 / 115 40% 3 03.04.2027 -
Tyreece Campbell Charlton Athletic Aktiv 126 / 122 40% 2 03.04.2027 -
Santiago Pierotti Lecce Aktiv 136 / 136 40% 1 03.04.2027 -
Tyrell Malacia Derby County Aktiv 132 / 137 40% 1 01.04.2027 -
Dávid Strelec Middlesbrough Aktiv 134 / 130 40% 2 29.03.2027 -
Peter Federico Gornik Zabrze Aktiv 113 / 123 40% 1 29.03.2027 -
Tariq Lamptey Queens Park Rangers Aktiv 150 / 126 40% 1 27.03.2027 -
Max Johnston Derby County Aktiv 134 / 132 40% 1 27.03.2027 -
Brian Figueroa Morelia Aktiv 105 / 115 40% 1 25.03.2027 -
Shea Charles Southampton Aktiv 121 / 139 40% 1 21.03.2027 -
Jerome Karelse Golden Arrows Aktiv 88 / 96 40% 1 19.03.2027 -
Wandile Duba Maritzburg United Aktiv 106 / 104 40% 3 18.03.2027 -
Mathias Jørgensen Blackburn Rovers Aktiv 116 / 119 40% 4 13.03.2027 -
Florentino Luís Ipswich Town Aktiv 150 / 139 40% 2 01.03.2027 -
Ben Nelson Leicester City Aktiv 129 / 130 40% 1 27.02.2027 -
Camilo Durán Bloemfontein Celtic Aktiv 135 / 123 40% 6 25.02.2027 -
Samuel Kalu Botev Plovdiv Aktiv 113 / 126 40% 2 19.02.2027 -
Driton Camaj Novi Pazar Aktiv 103 / 120 40% 2 15.02.2027 -
Etiosa Ighodaro Kaizer Chiefs Aktiv 123 / 118 40% 2 14.02.2027 -
Demba Seck Partizan Aktiv 125 / 126 40% 3 13.02.2027 -
Brayan Gil Baltika Aktiv 129 / 115 40% 3 12.02.2027 -
Callum Brittain Middlesbrough Aktiv 129 / 119 40% 1 10.02.2027 -
David Jurásek Slavia Prague Aktiv 120 / 114 40% 1 02.02.2027 -
Tomás Silva Platense Aktiv 128 / 124 40% 1 01.02.2027 -
Jordan Lotomba Bloemfontein Celtic Aktiv 135 / 134 40% 1 01.02.2027 -
Juan Larios Piast Aktiv 110 / 126 40% 2 30.01.2027 -
Adrián Spörle Belgrano Aktiv 119 / 125 40% 1 30.01.2027 -
Facundo Miño Deportivo Riestra Aktiv 124 / 125 40% 2 28.01.2027 -
Ross Stewart Southampton Aktiv 119 / 124 40% 1 26.01.2027 -
Oli McBurnie Hull City Aktiv 135 / 131 40% 1 26.01.2027 -
Santiago Sala Güemes Aktiv 108 / 106 40% 1 25.01.2027 -
Pablo Rodríguez Lech Aktiv 127 / 113 40% 1 25.01.2027 -
Relebohile Mofokeng Orlando Pirates Aktiv 122 / 127 40% 1 25.01.2027 -
Bojan Radulović Huddersfield Town Aktiv 128 / 116 40% 1 23.01.2027 -
Bruno Barticciotto Talleres Aktiv 127 / 121 40% 1 22.01.2027 -
Mateo Mendoza Godoy Cruz Aktiv 126 / 128 40% 1 22.01.2027 -
Hernán de la Fuente Instituto Aktiv 127 / 124 40% 1 22.01.2027 -
Santiago González Tigre Aktiv 126 / 130 40% 2 21.01.2027 -
Daniel Kyerewaa Reading Aktiv 100 / 120 40% 1 21.01.2027 -
Nardin Mulahusejnović Vojvodina Aktiv 112 / 127 40% 1 20.01.2027 -
Marezi Portsmouth Aktiv 112 / 130 40% 1 18.01.2027 -
Marcelo Torres Gimnasia La Plata Aktiv 127 / 123 40% 3 16.01.2027 -
Pedro Ramírez Deportivo Riestra Aktiv 119 / 120 40% 2 15.01.2027 -
Ignacio Abraham Banfield Aktiv 124 / 116 40% 1 14.01.2027 -
Jonás Acevedo Instituto Aktiv 124 / 119 40% 1 10.01.2027 -
Tomás Fernández Aldosivi Aktiv 121 / 113 40% 1 09.01.2027 -
Augusto Schott Talleres Aktiv 123 / 118 40% 1 08.01.2027 -
Leandro Lozano Boca Juniors Aktiv 123 / 128 40% 1 08.01.2027 -
Luca Martínez Dupuy Godoy Cruz Aktiv 117 / 116 40% 1 08.01.2027 -
Marcelo Estigarribia Unión de Santa Fe Aktiv 128 / 117 40% 1 07.01.2027 -
Fernando Martínez Central Córdoba SdE Aktiv 122 / 113 40% 1 06.01.2027 -
Juan Bisanz Huracán Aktiv 129 / 123 40% 1 03.12.2026 -
Erik Lira Cruz Azul Aktiv 144 / 142 40% 1 30.11.2026 -
Manu Nieto Andorra Aktiv 125 / 110 40% 1 29.11.2026 -
David Miculescu FCSB Aktiv 119 / 106 40% 1 28.11.2026 -
Bruno Palazzo Nueva Chicago Aktiv 108 / 107 40% 1 27.11.2026 -
Nicolás Fernández Tristán Suárez Aktiv 121 / 114 40% 1 27.11.2026 -
Luther Tau SuperSport United Aktiv 101 / 123 40% 2 25.11.2026 -
Nacho Vidal Lechia Aktiv 144 / 126 40% 1 25.11.2026 -
Conrad Wallem Aalborg Aktiv 140 / 127 40% 1 25.11.2026 -
Federico Varese Racing Aktiv 114 / 106 40% 1 25.11.2026 -
Luciano Pascual Godoy Cruz Aktiv 104 / 109 40% 1 25.11.2026 -
Iqraam Rayners Mamelodi Sundowns Verloren 120 / 134 40% 3 20.11.2026 -
Gonzalo Asis Almagro Aktiv 115 / 106 40% 1 20.11.2026 -
Nathan Trott Cardiff City Aktiv 116 / 126 40% 1 20.11.2026 -
Balázs Tóth Blackburn Rovers Aktiv 115 / 120 40% 1 20.11.2026 -
Fran Vieites Exeter City Aktiv 112 / 116 40% 1 17.11.2026 -
Wladimiro Falcone Lecce Aktiv 132 / 151 40% 1 17.11.2026 -
Ammar Ramadan DAC Dunajska Streda Aktiv 131 / 125 40% 1 15.11.2026 -
Bailey Peacock-Farrell Blackpool Aktiv 94 / 100 40% 1 15.11.2026 -
Alexander Aravena Portland Timbers Aktiv 114 / 136 40% 2 13.11.2026 -
Emiliano Álvarez Progreso Aktiv 123 / 126 40% 1 13.11.2026 Mehr Infos nötig
Lucas Arce Godoy Cruz Aktiv 122 / 127 40% 1 13.11.2026 -
Emiliano Saliadarre Miramar Misiones Aktiv 109 / 113 40% 1 11.11.2026 -
Armstrong Oko-Flex Levski Aktiv 107 / 116 40% 1 10.11.2026 -
Thiago Silvero Sevilla Aktiv 130 / 133 40% 4 07.11.2026 -
Mojmír Chytil Hajduk Split Aktiv 134 / 126 40% 1 07.11.2026 -
Franco Lorenzón San Lorenzo Aktiv 117 / 116 40% 1 07.11.2026 -
Veljko Birmančević Ferencvaros Verloren 135 / 145 40% 1 05.11.2026 -
Alonso Martínez NK Osijek Aktiv 113 / 116 40% 2 03.11.2026 -
Maximiliano Rodríguez Huachipato Aktiv 110 / 122 40% 5 01.11.2026 -
Matt Clarke Derby County Aktiv 129 / 137 40% 1 01.11.2026 -
Dario Vizinger NK Maribor Aktiv 115 / 106 40% 1 31.10.2026 -
Nicolás Campisi Sportivo Luqueno Aktiv 119 / 113 40% 2 28.10.2026 -
Rodrigo Morínigo Libertad Aktiv 115 / 116 40% 1 28.10.2026 -
Franco Sivetti Gimnasia y Tiro Aktiv 111 / 106 40% 2 26.10.2026 -
Matías Vera Nueva Chicago Aktiv 111 / 104 40% 1 26.10.2026 -
Rodrigo Mosqueira Agropecuario Argentino Aktiv 115 / 117 40% 1 24.10.2026 -
Vegard Erlien Tromso Aktiv 109 / 134 40% 1 21.10.2026 -
Kévin Denkey FC Cincinnati Aktiv 142 / 120 40% 3 17.10.2026 -
Agustín Venezia Iquique Aktiv 114 / 121 40% 1 16.10.2026 -
Morgan Guilavogui Real Salt Lake Aktiv 125 / 125 40% 1 14.10.2026 -
Nahuel Luján Sport Huancayo Aktiv 109 / 119 40% 2 12.10.2026 -
Enzo Larrosa Independiente Medellin Aktiv 116 / 102 40% 1 12.10.2026 -
Eric Ramírez Carabobo Aktiv 114 / 118 40% 2 11.10.2026 -
Igor Nikić Lech Aktiv 129 / 113 40% 2 11.10.2026 -
James Pantemis Portland Timbers Aktiv 121 / 105 40% 2 09.10.2026 -
Santiago Rojas Nacional Aktiv 116 / 119 40% 1 08.10.2026 -
Agustín Fontana Basaksehir Aktiv 108 / 125 40% 3 06.10.2026 -
Rafael Navarro St. Louis CITY SC Aktiv 120 / 116 40% 1 05.10.2026 -
Brandon Vázquez Austin FC Aktiv 127 / 108 40% 1 03.10.2026 -
Claudio Salto Almagro Aktiv 112 / 100 40% 1 03.10.2026 -
Ramiro Ruiz Rodríguez Atlético Tucumán Aktiv 117 / 117 40% 5 30.09.2026 -
Paxten Aaronson Colorado Rapids Aktiv 137 / 126 40% 1 30.09.2026 -
Ignacio Sabatini Gimnasia y Esgrima Aktiv 114 / 103 40% 1 30.09.2026 -
Joe Abrigo Palestino Aktiv 117 / 104 40% 3 29.09.2026 -
Tomás Chancalay Minnesota United FC Aktiv 120 / 130 40% 1 29.09.2026 -
Matt Freese New York City Aktiv 130 / 122 40% 2 28.09.2026 -
Matías Melluso Gimnasia La Plata Aktiv 124 / 110 40% 1 28.09.2026 -
Facundo Altamirano San Lorenzo Aktiv 113 / 118 40% 1 28.09.2026 -
Genaro Rossi San Martín SJ Aktiv 113 / 104 40% 3 24.09.2026 -
Prince Owusu CF Montreal Aktiv 124 / 105 40% 1 24.09.2026 -
Nicolás Linares Gimnasia y Esgrima Aktiv 113 / 106 40% 1 24.09.2026 -
Gastón Mansilla Maipú Aktiv 103 / 111 40% 1 24.09.2026 -
Nicolás Fernández Maipú Aktiv 109 / 114 40% 1 23.09.2026 -
DeJuan Jones San Jose Earthquakes Aktiv 137 / 121 40% 1 23.09.2026 -
Guillermo Fratta Deportivo Tachira Aktiv 107 / 109 40% 1 22.09.2026 -
Nahuel Brunet Godoy Cruz Aktiv 109 / 115 40% 1 20.09.2026 -
Luca Langoni New England Revolution Aktiv 120 / 140 40% 3 18.09.2026 -
Alexei Dominguez Pachuca Aktiv 107 / 116 40% 1 18.09.2026 -
Gabriel Risso Patrón Colón Aktiv 122 / 110 40% 1 17.09.2026 -
Jesús Castillo Alianza Lima Aktiv 120 / 118 40% 1 16.09.2026 -
Mathías de Ritis San Lorenzo Aktiv 115 / 119 40% 1 16.09.2026 -
Lucas Richarte Temperley Aktiv 106 / 108 40% 1 15.09.2026 -
Luis Iberico Sporting Cristal Aktiv 114 / 116 40% 2 12.09.2026 -
Timo Werner San Jose Earthquakes Aktiv 128 / 118 40% 1 12.09.2026 -
Adalberto Peñaranda Deportivo Tachira Aktiv 108 / 113 40% 1 10.09.2026 -
Gustavo Aguilar Libertad Aktiv 116 / 115 40% 1 07.09.2026 -
Jonatan Torres Cerro Porteno Aktiv 117 / 126 40% 1 06.09.2026 -
Walter González Sportivo Luqueno Aktiv 112 / 121 40% 2 05.09.2026 -
Kevin Méndez Union La Calera Aktiv 104 / 112 40% 1 05.09.2026 -
Fabricio Rojas Gimnasia y Tiro Aktiv 115 / 112 40% 1 02.09.2026 -
Harold Santiago Mosquera Cerro Porteno Aktiv 121 / 118 40% 1 02.09.2026 -
Clemente Montes Universidad Catolica Aktiv 123 / 119 40% 2 01.09.2026 -
Federico Girotti Alianza Lima Aktiv 121 / 126 40% 2 26.08.2026 -
Alex Valera Universitario Aktiv 127 / 131 40% 1 25.08.2026 -
Eryc Castillo Alianza Lima Aktiv 114 / 114 40% 1 25.08.2026 -
Juan Romero Olimpia Aktiv 113 / 113 40% 1 23.08.2026 -
Marcelo Fernández Libertad Aktiv 111 / 112 40% 1 20.08.2026 -
Ray Sandoval Cienciano Aktiv 113 / 107 40% 1 18.08.2026 -
Maurice Malone Minnesota United FC Aktiv 123 / 113 40% 1 18.08.2026 -
Jesus Ferreira Seattle Sounders Aktiv 127 / 118 40% 1 17.08.2026 -
Lucas Besozzi Lanús Aktiv 109 / 126 40% 2 13.08.2026 -
Jonathan Cañete Portuguesa Aktiv 108 / 111 40% 1 09.08.2026 -
Daniel Prieto Alianza Atletico Aktiv 102 / 106 40% 1 06.08.2026 -
Juan Feliú Nacional Aktiv 102 / 102 40% 1 05.08.2026 -
Juan Escobar Melgar Aktiv 116 / 131 40% 1 05.08.2026 -
Gianfranco Chávez Alianza Lima Aktiv 120 / 115 40% 1 04.08.2026 -
Juan Cruz González Sporting Cristal Aktiv 118 / 112 40% 1 04.08.2026 -
Miguel Araujo Sporting Cristal Aktiv 125 / 113 40% 1 03.08.2026 -
Manuel García Sarmiento Aktiv 122 / 108 40% 1 02.08.2026 -